Hauptseite
METAR-TAF:

METAR-TAF

Flughäfen :

Fliegerhorst Hohn

Hohn, Deutschland

Breite: 54-19N, Länge: 009-32E, Höhe: 12 m

Beobachtung

Neuester Wetterbericht von vor 1 Stunde und 2 Minuten, um 17:20 UTC
Wind 7 kt aus Nordwest
Temperatur 28°C
Luftfeuchtigkeit 42%
Luftdruck 1020 hPa
Sichtweite 10 km oder mehr
Leicht bewölkt in der Höhe von 21000 ft

METAR: ETNH 061720Z 31007KT 9999 FEW210 28/14 Q1020 BLU+

Zeit: 20:22 (18:22 UTC)

Prognose

Neuester Wetterbericht von vor 2 Stunden und 22 Minuten, um 16:00 UTC
Gültige Prognose vom 06 um 17 UTC bis 07 um 05 UTC
Wind 3 kt aus unterschiedlichen Richtungen
Sichtweite 10 km oder mehr
Aufgelockert bewölkt in der Höhe von 30000 ft

TAF: ETNH 061600Z 0617/0705 VRB03KT 9999 NSW SCT300 BY ETGL

Wetterbeobachtungen und Prognosen von mehr als 4000 Flughäfen (METAR und TAF Bericht).

Die verfügbaren Stationen werden durch gelbe und rote Markierungen auf der Karte dargestellt.

Führen Sie die Maus auf sie, um den Namen der Station zu sehen.

Darauf klicken, um die Beobachtung von Wetterbeobachtungen und Prognosen zu sehen.

Um die Karte zu ändern : klicken Sie auf den grünen Tasten mit einem schwarzen Kreuz Zum Vergrößern, auf den grünen Button mit einem Gedankenstrich zu verkleinern, oder auf die grünen Pfeile für benachbarte Karten.


METAR-TAF: